createdAt,value
2017-06-18T00:01:30.607Z,93.50
2017-06-18T00:03:59.686Z,93.60
2017-06-18T00:06:28.015Z,93.60
2017-06-18T00:08:56.291Z,93.70
2017-06-18T00:11:24.659Z,93.80
2017-06-18T00:13:52.940Z,93.80
2017-06-18T00:16:21.247Z,93.90
2017-06-18T00:18:49.520Z,94.00
2017-06-18T00:21:18.082Z,93.90
2017-06-18T00:23:46.454Z,94.00
2017-06-18T00:26:14.750Z,93.90
2017-06-18T00:28:43.155Z,93.90
2017-06-18T00:31:11.495Z,94.00
2017-06-18T00:33:40.591Z,94.10
2017-06-18T00:36:08.902Z,94.10
2017-06-18T00:38:37.273Z,94.10
2017-06-18T00:41:06.751Z,94.20
2017-06-18T00:43:35.133Z,94.30
2017-06-18T00:46:03.406Z,94.30
2017-06-18T00:48:31.700Z,94.40
2017-06-18T00:50:59.976Z,94.50
2017-06-18T00:53:29.188Z,94.70
2017-06-18T00:55:57.471Z,94.60
2017-06-18T00:58:25.915Z,94.80
2017-06-18T01:00:54.187Z,94.90
2017-06-18T01:03:22.464Z,95.10
2017-06-18T01:05:50.759Z,95.40
2017-06-18T01:08:19.039Z,95.60
2017-06-18T01:10:47.336Z,95.90
2017-06-18T01:13:15.620Z,96.10
2017-06-18T01:15:44.848Z,96.40
2017-06-18T01:18:13.235Z,96.40
2017-06-18T01:20:41.555Z,96.70
2017-06-18T01:23:09.831Z,96.60
2017-06-18T01:25:38.127Z,96.90
2017-06-18T01:28:06.411Z,97.10
2017-06-18T01:30:35.558Z,97.30
2017-06-18T01:33:03.847Z,97.30
2017-06-18T01:35:32.119Z,97.40
2017-06-18T01:38:00.636Z,97.60
2017-06-18T01:40:29.040Z,97.90
2017-06-18T01:42:57.383Z,98.10
2017-06-18T01:45:25.659Z,98.20
2017-06-18T01:47:54.328Z,98.30
2017-06-18T01:50:22.618Z,98.40
2017-06-18T01:52:51.755Z,98.60
2017-06-18T01:55:20.217Z,98.60
2017-06-18T01:57:48.492Z,98.70
2017-06-18T02:00:16.992Z,98.90
2017-06-18T02:02:46.131Z,98.90
2017-06-18T02:05:14.427Z,99.10
2017-06-18T02:07:43.464Z,99.10
2017-06-18T02:10:11.739Z,98.90
2017-06-18T02:12:40.203Z,99.00
2017-06-18T02:15:08.592Z,99.30
2017-06-18T02:17:37.656Z,99.70
2017-06-18T02:20:05.932Z,99.70
2017-06-18T02:22:35.003Z,99.90
2017-06-18T02:25:03.283Z,99.80
2017-06-18T02:27:32.427Z,99.90
2017-06-18T02:30:01.114Z,99.90
2017-06-18T02:32:29.421Z,99.90
2017-06-18T02:34:57.836Z,99.90
2017-06-18T02:37:26.119Z,99.90
2017-06-18T02:39:55.288Z,99.90
2017-06-18T02:42:23.661Z,99.90
2017-06-18T02:44:51.968Z,99.90
2017-06-18T02:47:20.597Z,99.90
2017-06-18T02:49:48.944Z,99.90
2017-06-18T02:52:17.231Z,99.90
2017-06-18T02:54:45.560Z,99.90
2017-06-18T02:57:13.839Z,99.90
2017-06-18T02:59:42.151Z,99.90
2017-06-18T03:02:10.468Z,99.90
2017-06-18T03:04:38.948Z,99.90
2017-06-18T03:07:08.020Z,99.90
2017-06-18T03:09:37.092Z,99.90
2017-06-18T03:12:05.435Z,99.90
2017-06-18T03:14:33.797Z,99.90
2017-06-18T03:17:02.091Z,99.90
2017-06-18T03:19:30.367Z,99.90
2017-06-18T03:21:58.664Z,99.90
2017-06-18T03:24:27.144Z,99.90
2017-06-18T03:26:55.451Z,99.90
2017-06-18T03:29:23.863Z,99.90
2017-06-18T03:31:52.295Z,99.90
2017-06-18T03:34:20.598Z,99.90
2017-06-18T03:36:48.919Z,99.90
2017-06-18T03:39:17.232Z,99.90
2017-06-18T03:41:45.546Z,99.90
2017-06-18T03:44:13.836Z,99.90
2017-06-18T03:46:42.127Z,99.90
2017-06-18T03:49:10.410Z,99.90
2017-06-18T03:51:38.764Z,99.90
2017-06-18T03:54:07.823Z,99.90
2017-06-18T03:56:36.233Z,99.90
2017-06-18T03:59:04.626Z,99.90
2017-06-18T04:01:32.906Z,99.90
2017-06-18T04:04:01.205Z,99.90
2017-06-18T04:06:29.491Z,99.90
2017-06-18T04:08:57.794Z,99.90
2017-06-18T04:11:26.142Z,99.90
2017-06-18T04:13:54.442Z,99.90
2017-06-18T04:16:22.727Z,99.90
2017-06-18T04:18:51.103Z,99.90
2017-06-18T04:21:19.404Z,99.90
2017-06-18T04:23:47.688Z,99.90
2017-06-18T04:26:16.764Z,99.90
2017-06-18T04:28:45.044Z,99.90
2017-06-18T04:31:13.354Z,99.90
2017-06-18T04:34:18.702Z,99.90
2017-06-18T04:36:47.002Z,99.90
2017-06-18T04:39:15.287Z,99.90
2017-06-18T04:41:43.605Z,99.90
2017-06-18T04:44:11.878Z,99.90
2017-06-18T04:46:40.176Z,99.90
2017-06-18T04:49:08.467Z,99.90
2017-06-18T04:51:36.758Z,99.90
2017-06-18T04:54:05.813Z,99.90
2017-06-18T04:56:34.139Z,99.90
2017-06-18T04:59:02.575Z,99.90
2017-06-18T05:01:31.004Z,99.90
2017-06-18T05:03:59.382Z,99.90
2017-06-18T05:06:27.835Z,99.90
2017-06-18T05:08:56.112Z,99.90
2017-06-18T05:11:25.205Z,99.90
2017-06-18T05:13:54.276Z,99.90
2017-06-18T05:16:22.558Z,99.90
2017-06-18T05:18:51.820Z,99.90
2017-06-18T05:21:20.919Z,99.90
2017-06-18T05:23:49.339Z,99.90
2017-06-18T05:26:17.638Z,99.90
2017-06-18T05:28:46.779Z,99.90
2017-06-18T05:31:15.151Z,99.90
2017-06-18T05:33:43.440Z,99.90
2017-06-18T05:36:11.835Z,99.90
2017-06-18T05:38:40.232Z,99.90
2017-06-18T05:41:09.194Z,99.90
2017-06-18T05:43:38.304Z,99.70
2017-06-18T05:46:06.619Z,99.70
2017-06-18T05:48:34.898Z,99.50
2017-06-18T05:51:03.283Z,99.00
2017-06-18T05:53:31.571Z,99.20
2017-06-18T05:56:00.646Z,99.00
2017-06-18T05:58:28.951Z,98.90
2017-06-18T06:00:57.250Z,98.60
2017-06-18T06:03:25.772Z,98.50
2017-06-18T06:05:54.055Z,98.20
2017-06-18T06:08:22.347Z,98.10
2017-06-18T06:10:51.182Z,97.90
2017-06-18T06:13:19.484Z,97.70
2017-06-18T06:15:47.775Z,97.40
2017-06-18T06:18:16.835Z,97.20
2017-06-18T06:20:45.887Z,97.50
2017-06-18T06:23:14.359Z,97.20
2017-06-18T06:25:42.679Z,97.10
2017-06-18T06:28:10.997Z,96.80
2017-06-18T06:30:39.567Z,96.50
2017-06-18T06:33:07.851Z,95.90
2017-06-18T06:35:36.915Z,96.00
2017-06-18T06:38:05.289Z,96.00
2017-06-18T06:40:33.663Z,95.50
2017-06-18T06:43:01.947Z,95.20
2017-06-18T06:45:30.422Z,94.80
2017-06-18T06:47:58.743Z,94.70
2017-06-18T06:50:27.864Z,94.70
2017-06-18T06:52:56.134Z,94.70
2017-06-18T06:55:24.644Z,94.20
2017-06-18T06:57:52.911Z,94.30
2017-06-18T07:00:21.968Z,94.20
2017-06-18T07:02:50.243Z,94.20
2017-06-18T07:05:18.535Z,93.90
2017-06-18T07:07:46.991Z,93.20
2017-06-18T07:10:16.327Z,93.10
2017-06-18T07:12:44.714Z,93.10
2017-06-18T07:15:13.193Z,93.00
2017-06-18T07:17:41.671Z,93.00
2017-06-18T07:20:10.036Z,92.80
2017-06-18T07:22:38.347Z,92.30
2017-06-18T07:25:07.841Z,91.60
2017-06-18T07:27:36.112Z,91.60
2017-06-18T07:30:04.493Z,91.30
2017-06-18T07:32:32.784Z,90.00
2017-06-18T07:35:01.502Z,90.10
2017-06-18T07:37:29.918Z,90.00
2017-06-18T07:39:58.207Z,89.20
2017-06-18T07:42:27.441Z,85.90
2017-06-18T07:44:56.495Z,84.60
2017-06-18T07:47:24.867Z,83.90
2017-06-18T07:49:53.152Z,81.50
2017-06-18T07:52:22.212Z,79.30
2017-06-18T07:54:50.489Z,79.30
2017-06-18T07:57:18.903Z,79.20
2017-06-18T07:59:47.204Z,78.00
2017-06-18T08:02:15.494Z,78.60
2017-06-18T08:04:43.944Z,78.10
2017-06-18T08:07:12.999Z,77.80
2017-06-18T08:09:41.368Z,77.70
2017-06-18T08:12:09.623Z,76.40
2017-06-18T08:14:37.938Z,75.40
2017-06-18T08:17:06.211Z,75.80
2017-06-18T08:19:34.654Z,75.50
2017-06-18T08:22:02.947Z,75.70
2017-06-18T08:24:31.246Z,74.70
2017-06-18T08:26:59.521Z,73.70
2017-06-18T08:29:28.571Z,70.70
2017-06-18T08:31:56.974Z,70.60
2017-06-18T08:34:26.023Z,70.50
2017-06-18T08:36:54.299Z,70.40
2017-06-18T08:39:22.607Z,70.30
2017-06-18T08:41:50.904Z,70.30
2017-06-18T08:44:19.312Z,70.40
2017-06-18T08:46:47.596Z,70.60
2017-06-18T08:49:16.071Z,70.30
2017-06-18T08:51:44.365Z,69.60
2017-06-18T08:54:12.671Z,68.70
2017-06-18T08:56:40.966Z,68.20
2017-06-18T08:59:09.243Z,68.70
2017-06-18T09:01:37.532Z,68.50
2017-06-18T09:04:06.615Z,69.20
2017-06-18T09:06:34.951Z,69.20
2017-06-18T09:09:03.236Z,69.60
2017-06-18T09:11:32.291Z,68.90
2017-06-18T09:14:00.567Z,68.90
2017-06-18T09:16:28.867Z,68.70
2017-06-18T09:18:57.170Z,66.50
2017-06-18T09:21:25.641Z,67.00
2017-06-18T09:23:54.105Z,66.50
2017-06-18T09:26:22.383Z,65.10
2017-06-18T09:28:50.679Z,64.30
2017-06-18T09:31:20.012Z,63.20
2017-06-18T09:33:50.381Z,61.80
2017-06-18T09:36:19.391Z,59.80
2017-06-18T09:38:47.704Z,59.30
2017-06-18T09:41:16.901Z,57.60
2017-06-18T09:43:45.214Z,57.50
2017-06-18T09:46:13.489Z,57.60
2017-06-18T09:48:41.791Z,58.20
2017-06-18T09:51:10.067Z,59.00
2017-06-18T09:53:38.362Z,58.20
2017-06-18T09:56:06.642Z,58.30
2017-06-18T09:58:35.702Z,61.30
2017-06-18T10:01:03.983Z,60.60
2017-06-18T10:03:33.026Z,60.00
2017-06-18T10:06:02.114Z,61.50
2017-06-18T10:08:30.395Z,61.00
2017-06-18T10:10:58.779Z,60.60
2017-06-18T10:13:27.145Z,61.20
2017-06-18T10:15:56.255Z,60.80
2017-06-18T10:18:24.515Z,60.80
2017-06-18T10:20:52.811Z,60.10
2017-06-18T10:23:26.750Z,58.80
2017-06-18T10:25:55.066Z,58.60
2017-06-18T10:28:23.368Z,58.60
2017-06-18T10:30:52.409Z,57.50
2017-06-18T10:33:21.683Z,57.70
2017-06-18T10:35:50.108Z,57.60
2017-06-18T10:38:18.415Z,56.50
2017-06-18T10:40:46.786Z,56.30
2017-06-18T10:43:15.061Z,56.40
2017-06-18T10:45:44.131Z,56.10
2017-06-18T10:48:12.663Z,56.10
2017-06-18T10:50:40.943Z,55.10
2017-06-18T10:53:09.369Z,54.90
2017-06-18T10:55:37.711Z,55.00
2017-06-18T10:58:06.318Z,54.10
2017-06-18T11:00:34.594Z,54.00
2017-06-18T11:03:02.875Z,54.50
2017-06-18T11:05:31.160Z,54.10
2017-06-18T11:07:59.506Z,54.60
2017-06-18T11:10:28.275Z,54.60
2017-06-18T11:12:56.637Z,54.80
2017-06-18T11:15:24.973Z,54.00
2017-06-18T11:17:53.400Z,53.40
2017-06-18T11:20:22.493Z,52.40
2017-06-18T11:22:51.014Z,52.40
2017-06-18T11:25:19.687Z,53.20
2017-06-18T11:27:48.051Z,53.80
2017-06-18T11:30:16.339Z,54.80
2017-06-18T11:32:44.702Z,55.00
2017-06-18T11:35:13.001Z,54.50
2017-06-18T11:37:41.275Z,54.60
2017-06-18T11:40:09.572Z,54.70
2017-06-18T11:42:38.011Z,54.50
2017-06-18T11:45:06.446Z,54.90
2017-06-18T11:47:35.033Z,55.50
2017-06-18T11:50:03.307Z,56.30
2017-06-18T11:52:31.589Z,56.30
2017-06-18T11:54:59.943Z,56.50
2017-06-18T11:57:28.539Z,55.20
2017-06-18T11:59:56.828Z,55.00
2017-06-18T12:02:25.183Z,54.30
2017-06-18T12:04:53.455Z,53.50
2017-06-18T12:07:21.971Z,52.80
2017-06-18T12:09:50.253Z,52.10
2017-06-18T12:12:19.320Z,53.50
2017-06-18T12:14:47.655Z,53.40
2017-06-18T12:17:16.573Z,53.60
2017-06-18T12:19:44.832Z,53.40
2017-06-18T12:22:13.208Z,53.90
2017-06-18T12:24:42.260Z,53.50
2017-06-18T12:27:10.638Z,53.50
2017-06-18T12:29:38.945Z,53.20
2017-06-18T12:32:07.257Z,51.60
2017-06-18T12:34:35.575Z,51.70
2017-06-18T12:37:03.852Z,52.00
2017-06-18T12:39:32.263Z,52.50
2017-06-18T12:42:00.630Z,51.80
2017-06-18T12:44:28.990Z,51.70
2017-06-18T12:46:57.479Z,51.30
2017-06-18T12:49:26.084Z,50.60
2017-06-18T12:51:54.392Z,50.90
2017-06-18T12:54:22.703Z,50.90
2017-06-18T12:56:51.235Z,51.10
2017-06-18T12:59:19.553Z,50.30
2017-06-18T13:01:47.836Z,50.20
2017-06-18T13:04:16.954Z,50.90
2017-06-18T13:06:45.238Z,50.90
2017-06-18T13:09:13.515Z,49.80
2017-06-18T13:11:41.804Z,50.20
2017-06-18T13:14:11.231Z,50.50
2017-06-18T13:16:40.551Z,51.90
2017-06-18T13:19:08.991Z,51.80
2017-06-18T13:21:37.365Z,52.30
2017-06-18T13:24:05.727Z,52.60
2017-06-18T13:26:34.137Z,53.10
2017-06-18T13:29:02.409Z,52.70
2017-06-18T13:31:30.725Z,52.30
2017-06-18T13:33:58.975Z,51.60
2017-06-18T13:36:27.412Z,51.80
2017-06-18T13:38:55.722Z,51.70
2017-06-18T13:41:24.080Z,51.60
2017-06-18T13:43:52.331Z,51.40
2017-06-18T13:46:20.698Z,51.70
2017-06-18T13:48:48.967Z,51.40
2017-06-18T13:51:17.283Z,50.80
2017-06-18T13:53:45.563Z,51.00
2017-06-18T13:56:13.851Z,50.80
2017-06-18T13:58:42.140Z,50.50
2017-06-18T14:01:11.183Z,49.60
2017-06-18T14:03:39.571Z,49.60
2017-06-18T14:06:07.977Z,49.10
2017-06-18T14:08:36.258Z,48.00
2017-06-18T14:11:04.682Z,48.30
2017-06-18T14:13:33.054Z,48.30
2017-06-18T14:16:01.349Z,48.30
2017-06-18T14:18:29.703Z,48.70
2017-06-18T14:20:58.200Z,48.90
2017-06-18T14:23:26.602Z,48.20
2017-06-18T14:25:54.976Z,48.10
2017-06-18T14:28:23.271Z,48.50
2017-06-18T14:30:51.550Z,48.20
2017-06-18T14:33:19.827Z,49.20
2017-06-18T14:35:48.188Z,49.30
2017-06-18T14:38:16.528Z,49.10
2017-06-18T14:40:44.921Z,49.30
2017-06-18T14:43:14.560Z,50.00
2017-06-18T14:45:42.906Z,49.30
2017-06-18T14:48:11.177Z,49.10
2017-06-18T14:50:39.478Z,48.40
2017-06-18T14:53:07.758Z,48.30
2017-06-18T14:55:36.056Z,47.20
2017-06-18T14:58:05.098Z,45.90
2017-06-18T15:00:33.491Z,45.90
2017-06-18T15:03:02.523Z,44.50
2017-06-18T15:05:30.799Z,44.40
2017-06-18T15:07:59.099Z,44.80
2017-06-18T15:10:27.370Z,45.60
2017-06-18T15:12:55.708Z,45.80
2017-06-18T15:15:24.823Z,44.40
2017-06-18T15:17:53.285Z,44.40
2017-06-18T15:20:21.611Z,44.30
2017-06-18T15:22:49.927Z,44.60
2017-06-18T15:25:18.195Z,44.90
2017-06-18T15:27:47.355Z,44.50
2017-06-18T15:30:15.664Z,44.10
2017-06-18T15:32:43.956Z,43.80
2017-06-18T15:35:12.259Z,43.80
2017-06-18T15:37:40.583Z,43.80
2017-06-18T15:40:09.249Z,43.30
2017-06-18T15:42:37.833Z,43.30
2017-06-18T15:45:06.151Z,44.20
2017-06-18T15:47:34.427Z,45.10
2017-06-18T15:50:03.637Z,46.80
2017-06-18T15:52:31.927Z,46.70
2017-06-18T15:55:00.323Z,47.60
2017-06-18T15:57:28.723Z,47.50
2017-06-18T15:59:57.399Z,47.90
2017-06-18T16:02:26.448Z,46.30
2017-06-18T16:04:55.517Z,46.40
2017-06-18T16:07:23.901Z,46.40
2017-06-18T16:09:52.311Z,46.20
2017-06-18T16:12:20.720Z,45.60
2017-06-18T16:14:49.774Z,44.60
2017-06-18T16:17:18.098Z,44.60
2017-06-18T16:19:46.522Z,44.40
2017-06-18T16:22:15.028Z,44.50
2017-06-18T16:24:43.378Z,44.50
2017-06-18T16:27:11.667Z,44.20
2017-06-18T16:29:40.129Z,44.30
2017-06-18T16:32:08.418Z,44.10
2017-06-18T16:34:36.739Z,44.00
2017-06-18T16:37:05.064Z,43.90
2017-06-18T16:39:33.405Z,44.10
2017-06-18T16:42:01.827Z,45.40
2017-06-18T16:44:30.256Z,46.30
2017-06-18T16:46:58.542Z,46.60
2017-06-18T16:49:26.812Z,46.70
2017-06-18T16:51:55.105Z,46.90
2017-06-18T16:54:23.378Z,46.80
2017-06-18T16:56:51.778Z,46.70
2017-06-18T16:59:20.042Z,46.20
2017-06-18T17:01:49.108Z,46.60
2017-06-18T17:04:17.383Z,46.50
2017-06-18T17:06:46.435Z,45.90
2017-06-18T17:09:14.748Z,45.90
2017-06-18T17:11:43.066Z,46.60
2017-06-18T17:14:11.463Z,46.90
2017-06-18T17:16:39.727Z,46.70
2017-06-18T17:19:08.021Z,46.40
2017-06-18T17:21:41.860Z,45.20
2017-06-18T17:24:10.908Z,45.30
2017-06-18T17:26:39.181Z,45.30
2017-06-18T17:29:07.503Z,44.70
2017-06-18T17:31:35.799Z,43.90
2017-06-18T17:34:04.071Z,43.50
2017-06-18T17:36:32.382Z,43.30
2017-06-18T17:39:00.692Z,44.70
2017-06-18T17:41:29.875Z,44.90
2017-06-18T17:43:58.150Z,44.90
2017-06-18T17:46:27.214Z,45.10
2017-06-18T17:48:55.520Z,45.00
2017-06-18T17:51:23.939Z,44.80
2017-06-18T17:53:52.706Z,45.60
2017-06-18T17:56:20.981Z,46.30
2017-06-18T17:58:49.320Z,46.60
2017-06-18T18:01:17.588Z,47.00
2017-06-18T18:03:45.923Z,47.50
2017-06-18T18:06:14.195Z,47.50
2017-06-18T18:08:42.708Z,47.50
2017-06-18T18:11:11.143Z,48.80
2017-06-18T18:13:39.439Z,49.30
2017-06-18T18:16:08.478Z,49.20
2017-06-18T18:18:36.900Z,49.20
2017-06-18T18:21:05.179Z,49.10
2017-06-18T18:23:33.578Z,49.40
2017-06-18T18:26:01.867Z,49.20
2017-06-18T18:28:30.149Z,50.00
2017-06-18T18:30:58.448Z,50.80
2017-06-18T18:33:26.720Z,51.10
2017-06-18T18:35:55.135Z,52.10
2017-06-18T18:38:23.424Z,52.60
2017-06-18T18:40:51.706Z,52.90
2017-06-18T18:43:19.987Z,53.10
2017-06-18T18:45:48.278Z,53.10
2017-06-18T18:48:16.551Z,52.90
2017-06-18T18:50:44.915Z,53.10
2017-06-18T18:53:13.195Z,53.40
2017-06-18T18:55:41.482Z,53.70
2017-06-18T18:58:09.942Z,54.30
2017-06-18T19:00:39.952Z,55.70
2017-06-18T19:03:09.033Z,55.60
2017-06-18T19:05:37.531Z,55.60
2017-06-18T19:08:06.570Z,56.80
2017-06-18T19:10:34.866Z,56.70
2017-06-18T19:13:04.224Z,57.60
2017-06-18T19:15:32.497Z,57.60
2017-06-18T19:18:00.806Z,58.10
2017-06-18T19:20:29.091Z,59.00
2017-06-18T19:22:57.411Z,59.20
2017-06-18T19:25:26.503Z,60.80
2017-06-18T19:27:54.791Z,60.70
2017-06-18T19:30:23.181Z,61.00
2017-06-18T19:32:52.262Z,62.40
2017-06-18T19:35:20.599Z,62.40
2017-06-18T19:37:48.952Z,62.70
2017-06-18T19:40:17.229Z,63.50
2017-06-18T19:42:45.555Z,64.10
2017-06-18T19:45:13.833Z,64.60
2017-06-18T19:47:42.188Z,65.00
2017-06-18T19:50:10.519Z,65.40
2017-06-18T19:52:38.873Z,65.80
2017-06-18T19:55:07.423Z,66.30
2017-06-18T19:57:35.908Z,66.90
2017-06-18T20:00:04.216Z,67.30
2017-06-18T20:02:32.525Z,67.40
2017-06-18T20:05:00.834Z,67.90
2017-06-18T20:07:29.115Z,68.30
2017-06-18T20:09:57.444Z,68.70
2017-06-18T20:12:26.697Z,69.40
2017-06-18T20:14:54.983Z,69.40
2017-06-18T20:17:24.029Z,69.90
2017-06-18T20:19:53.166Z,70.60
2017-06-18T20:22:21.461Z,70.30
2017-06-18T20:24:49.775Z,70.80
2017-06-18T20:27:18.067Z,71.10
2017-06-18T20:29:46.355Z,71.50
2017-06-18T20:32:14.725Z,72.00
2017-06-18T20:34:43.002Z,72.30
2017-06-18T20:37:11.288Z,72.60
2017-06-18T20:39:39.563Z,73.70
2017-06-18T20:42:07.852Z,73.50
2017-06-18T20:44:36.940Z,74.40
2017-06-18T20:47:05.309Z,74.30
2017-06-18T20:49:33.651Z,74.80
2017-06-18T20:52:02.003Z,75.20
2017-06-18T20:54:30.346Z,76.30
2017-06-18T20:56:59.385Z,76.70
2017-06-18T20:59:27.727Z,76.50
2017-06-18T21:01:56.007Z,77.00
2017-06-18T21:04:24.370Z,77.40
2017-06-18T21:06:52.779Z,78.00
2017-06-18T21:09:21.093Z,78.20
2017-06-18T21:11:49.375Z,78.60
2017-06-18T21:14:17.899Z,78.90
2017-06-18T21:16:46.275Z,79.10
2017-06-18T21:19:14.624Z,79.50
2017-06-18T21:21:43.062Z,80.00
2017-06-18T21:24:11.340Z,80.20
2017-06-18T21:26:39.841Z,80.50
2017-06-18T21:29:08.123Z,80.80
2017-06-18T21:31:36.458Z,81.00
2017-06-18T21:34:04.856Z,81.50
2017-06-18T21:36:33.116Z,81.90
2017-06-18T21:39:02.212Z,82.60
2017-06-18T21:41:30.640Z,82.50
2017-06-18T21:43:58.912Z,82.80
2017-06-18T21:46:27.527Z,83.30
2017-06-18T21:48:55.826Z,83.40
2017-06-18T21:51:24.153Z,83.20
2017-06-18T21:53:52.619Z,83.50
2017-06-18T21:56:20.960Z,83.60
2017-06-18T21:58:49.280Z,83.60
2017-06-18T22:01:17.591Z,83.80
2017-06-18T22:03:45.875Z,83.60
2017-06-18T22:06:14.299Z,83.80
2017-06-18T22:08:42.558Z,83.80
2017-06-18T22:11:11.636Z,84.20
2017-06-18T22:13:40.760Z,84.30
2017-06-18T22:16:09.775Z,84.70
2017-06-18T22:18:38.855Z,84.80
2017-06-18T22:21:07.159Z,84.80
2017-06-18T22:23:35.527Z,84.90
2017-06-18T22:26:03.799Z,85.30
2017-06-18T22:28:32.131Z,85.40
2017-06-18T22:31:01.280Z,85.40
2017-06-18T22:33:29.599Z,85.40
2017-06-18T22:35:59.889Z,85.60
2017-06-18T22:38:28.206Z,85.70
2017-06-18T22:40:56.631Z,85.70
2017-06-18T22:43:24.911Z,85.90
2017-06-18T22:45:53.242Z,85.50
2017-06-18T22:48:23.032Z,85.30
2017-06-18T22:50:51.316Z,85.20
2017-06-18T22:53:19.612Z,85.30
2017-06-18T22:55:48.244Z,85.40
2017-06-18T22:58:16.579Z,85.40
2017-06-18T23:00:45.071Z,85.50
2017-06-18T23:03:13.762Z,85.20
2017-06-18T23:05:42.048Z,85.40
2017-06-18T23:08:10.371Z,85.30
2017-06-18T23:10:39.646Z,85.30
2017-06-18T23:13:08.309Z,85.00
2017-06-18T23:15:36.602Z,85.20
2017-06-18T23:18:04.883Z,85.10
2017-06-18T23:20:33.212Z,85.10
2017-06-18T23:23:01.556Z,85.10
2017-06-18T23:25:30.647Z,85.20
2017-06-18T23:27:59.049Z,85.10
2017-06-18T23:30:27.419Z,85.20
2017-06-18T23:32:55.744Z,85.80
2017-06-18T23:35:25.456Z,85.80
2017-06-18T23:37:53.755Z,85.70
2017-06-18T23:40:22.039Z,85.40
2017-06-18T23:42:51.141Z,85.50
2017-06-18T23:45:19.436Z,85.50
2017-06-18T23:47:47.731Z,85.50
2017-06-18T23:50:16.118Z,85.40
2017-06-18T23:52:44.443Z,85.40
2017-06-18T23:55:12.741Z,85.40
2017-06-18T23:57:41.063Z,85.20
